Time;durP1;ratioP1;P1;durP2;ratioP2;P2;SDS_P1;SDS_P2;PMS_P1;PMS_P2;Temp;Humidity;BMP_temperature;BMP_pressure;BME280_temperature;BME280_humidity;BME280_pressure;Samples;Min_cycle;Max_cycle;Signal;HPM_P1;HPM_P2
2021/12/13 00:02:57;;;;;;;444.25;157.23;;;;;;;-6.47;100.00;100516.59;5032001;28;20344;-73
2021/12/13 00:05:55;;;;;;;406.00;148.02;;;;;;;-6.33;100.00;100510.56;5031879;28;20048;-73
2021/12/13 00:08:43;;;;;;;415.25;154.48;;;;;;;-6.26;100.00;100505.00;5031897;28;20120;-73
2021/12/13 00:11:33;;;;;;;431.17;153.65;;;;;;;-6.24;100.00;100495.78;5032741;28;20041;-73
2021/12/13 00:14:27;;;;;;;383.35;147.95;;;;;;;-6.21;100.00;100492.47;5032543;28;20053;-73
2021/12/13 00:17:21;;;;;;;421.95;150.05;;;;;;;-6.19;100.00;100494.31;5032881;28;20053;-73
2021/12/13 00:20:08;;;;;;;411.10;151.27;;;;;;;-6.06;100.00;100503.50;5032574;28;20045;-73
2021/12/13 00:22:55;;;;;;;441.40;162.93;;;;;;;-6.01;100.00;100493.50;5032452;28;20053;-71
2021/12/13 00:25:43;;;;;;;411.80;153.13;;;;;;;-5.98;100.00;100496.22;5032436;28;20363;-71
2021/12/13 00:28:34;;;;;;;432.75;160.70;;;;;;;-5.93;100.00;100492.25;5031657;28;20351;-71
2021/12/13 00:31:44;;;;;;;410.88;153.10;;;;;;;-5.85;100.00;100496.03;5032346;28;20355;-71
2021/12/13 00:34:42;;;;;;;433.65;161.73;;;;;;;-5.72;100.00;100498.44;5017765;28;20042;-71
2021/12/13 00:37:44;;;;;;;403.05;153.50;;;;;;;-5.65;100.00;100491.97;5031672;28;20101;-71
2021/12/13 00:40:38;;;;;;;380.15;149.35;;;;;;;-5.60;100.00;100492.19;5032364;28;20041;-71
2021/12/13 00:43:26;;;;;;;404.60;156.52;;;;;;;-5.56;100.00;100499.19;5031613;28;20053;-71
2021/12/13 00:46:13;;;;;;;394.75;150.55;;;;;;;-5.59;100.00;100510.13;5031675;28;20046;-71
2021/12/13 00:49:00;;;;;;;389.58;149.98;;;;;;;-5.47;100.00;100505.63;5031373;28;20497;-71
2021/12/13 00:51:48;;;;;;;392.83;148.35;;;;;;;-5.41;100.00;100505.94;5032153;28;20042;-71
2021/12/13 00:54:38;;;;;;;371.58;143.65;;;;;;;-5.35;100.00;100507.94;5031605;28;20138;-71
2021/12/13 00:57:29;;;;;;;381.98;146.05;;;;;;;-5.26;100.00;100513.50;5034523;28;20423;-72
2021/12/13 01:00:20;;;;;;;344.77;136.30;;;;;;;-5.31;100.00;100517.50;5034682;28;20053;-71
2021/12/13 01:03:16;;;;;;;340.58;139.15;;;;;;;-5.26;100.00;100525.41;5035430;28;20046;-71
2021/12/13 01:06:28;;;;;;;323.92;131.30;;;;;;;-5.17;100.00;100525.81;5034633;28;20064;-71
2021/12/13 01:09:41;;;;;;;346.83;131.18;;;;;;;-5.27;100.00;100521.06;5034462;28;20042;-71
2021/12/13 01:12:27;;;;;;;331.60;125.90;;;;;;;-5.13;100.00;100519.19;5034602;28;20041;-71
2021/12/13 01:15:28;;;;;;;364.20;139.65;;;;;;;-5.18;100.00;100517.28;5035218;28;20033;-71
2021/12/13 01:18:29;;;;;;;349.88;134.85;;;;;;;-5.03;100.00;100513.75;5106961;27;20069;-71
2021/12/13 01:21:33;;;;;;;318.80;125.20;;;;;;;-5.01;100.00;100507.03;5035044;28;20105;-71
2021/12/13 01:24:41;;;;;;;295.33;116.80;;;;;;;-4.93;100.00;100511.72;5035107;28;20069;-71
2021/12/13 01:27:40;;;;;;;286.30;112.55;;;;;;;-4.87;100.00;100513.69;5020356;28;20053;-71
2021/12/13 01:30:36;;;;;;;298.83;120.32;;;;;;;-4.89;100.00;100499.06;5034290;28;20037;-71
2021/12/13 01:33:22;;;;;;;273.80;108.38;;;;;;;-4.90;100.00;100505.00;5034961;28;20447;-71
2021/12/13 01:36:09;;;;;;;286.42;109.75;;;;;;;-4.72;100.00;100499.06;5034251;28;20129;-71
2021/12/13 01:39:06;;;;;;;267.13;110.35;;;;;;;-4.71;100.00;100502.50;5034774;28;20355;-71
2021/12/13 01:41:58;;;;;;;256.50;102.90;;;;;;;-4.69;100.00;100498.34;5034785;28;20048;-71
2021/12/13 01:44:46;;;;;;;250.43;101.40;;;;;;;-4.64;100.00;100490.91;5034054;28;20423;-71
2021/12/13 01:47:40;;;;;;;259.48;97.57;;;;;;;-4.66;100.00;100485.69;5034789;28;20055;-71
2021/12/13 01:50:41;;;;;;;245.13;101.13;;;;;;;-4.58;100.00;100496.25;5034146;28;20041;-71
2021/12/13 01:53:46;;;;;;;240.60;96.32;;;;;;;-4.57;100.00;100496.34;5034605;28;20042;-71
2021/12/13 02:02:31;;;;;;;239.07;100.45;;;;;;;-4.39;100.00;100487.75;5034690;28;20052;-71
2021/12/13 02:05:20;;;;;;;231.98;94.22;;;;;;;-4.40;100.00;100496.25;5034673;28;20056;-71
2021/12/13 02:08:11;;;;;;;232.32;95.43;;;;;;;-4.36;100.00;100486.22;5034368;28;20423;-71
2021/12/13 02:10:56;;;;;;;230.15;91.95;;;;;;;-4.26;100.00;100493.53;5033587;28;20042;-71
2021/12/13 02:14:03;;;;;;;215.05;88.00;;;;;;;-4.30;100.00;100491.63;5033604;28;20041;-71
2021/12/13 02:17:10;;;;;;;217.10;93.13;;;;;;;-4.16;100.00;100489.69;5033512;28;20053;-71
2021/12/13 02:20:00;;;;;;;209.63;90.45;;;;;;;-4.17;100.00;100487.06;5033436;28;20049;-71
2021/12/13 02:22:55;;;;;;;215.20;86.93;;;;;;;-4.11;100.00;100480.53;5034124;28;20486;-71
2021/12/13 02:25:45;;;;;;;213.50;90.72;;;;;;;-4.09;100.00;100485.72;5033380;28;20045;-71
2021/12/13 02:28:34;;;;;;;207.63;86.82;;;;;;;-4.13;100.00;100474.47;5033977;28;20037;-71
2021/12/13 02:31:27;;;;;;;219.77;94.78;;;;;;;-4.03;100.00;100481.75;5019660;28;20053;-71
2021/12/13 02:34:15;;;;;;;217.25;94.20;;;;;;;-4.04;100.00;100482.53;5105673;27;20077;-71
2021/12/13 02:37:00;;;;;;;211.50;92.93;;;;;;;-3.99;100.00;100480.22;5033297;28;20037;-71
2021/12/13 02:39:49;;;;;;;227.30;93.03;;;;;;;-4.02;100.00;100477.50;5033861;28;20069;-71
2021/12/13 02:42:35;;;;;;;222.63;97.45;;;;;;;-3.95;100.00;100478.66;5034003;28;20435;-71
2021/12/13 02:45:42;;;;;;;217.65;90.80;;;;;;;-3.89;100.00;100472.13;5033899;28;20042;-70
2021/12/13 02:48:39;;;;;;;203.18;86.25;;;;;;;-3.85;100.00;100485.91;5032968;28;20042;-71
2021/12/13 02:51:34;;;;;;;198.45;82.85;;;;;;;-3.74;100.00;100483.81;5033735;28;20053;-71
2021/12/13 02:54:22;;;;;;;185.70;81.15;;;;;;;-3.71;100.00;100489.06;5033669;28;20041;-71
2021/12/13 02:57:11;;;;;;;170.30;76.95;;;;;;;-3.66;100.00;100485.03;5033700;28;20121;-70
2021/12/13 03:00:05;;;;;;;167.70;73.25;;;;;;;-3.60;100.00;100485.28;5032849;28;20049;-70
2021/12/13 03:02:54;;;;;;;151.18;65.88;;;;;;;-3.57;100.00;100486.31;5033536;28;20053;-70
2021/12/13 03:05:42;;;;;;;158.20;67.18;;;;;;;-3.51;100.00;100490.78;5032837;28;20048;-71
2021/12/13 03:08:33;;;;;;;154.13;67.22;;;;;;;-3.47;100.00;100486.69;5033423;28;20098;-71
2021/12/13 03:11:24;;;;;;;151.07;65.88;;;;;;;-3.41;100.00;100495.50;5104673;27;20442;-70
2021/12/13 03:14:16;;;;;;;129.52;60.85;;;;;;;-3.47;100.00;100486.69;5033427;28;20120;-70
2021/12/13 03:17:14;;;;;;;131.60;58.65;;;;;;;-3.49;100.00;100489.16;5032676;28;20046;-70
2021/12/13 03:20:18;;;;;;;128.93;56.28;;;;;;;-3.38;100.00;100493.06;5032330;28;20049;-71
2021/12/13 03:23:21;;;;;;;128.25;55.08;;;;;;;-3.33;100.00;100490.69;5033235;28;20041;-70
2021/12/13 03:26:29;;;;;;;123.47;55.13;;;;;;;-3.32;100.00;100483.06;5033337;28;20048;-71
2021/12/13 03:29:34;;;;;;;121.68;54.08;;;;;;;-3.30;100.00;100490.81;5033219;28;20041;-71
2021/12/13 03:32:20;;;;;;;113.57;51.72;;;;;;;-3.26;100.00;100486.69;5032576;28;20117;-71
2021/12/13 03:35:20;;;;;;;116.38;51.97;;;;;;;-3.14;100.00;100489.75;5032465;28;20045;-70
2021/12/13 03:38:31;;;;;;;109.05;50.35;;;;;;;-3.12;100.00;100485.56;5033052;28;20080;-70
2021/12/13 03:41:20;;;;;;;118.82;52.80;;;;;;;-3.19;100.00;100489.56;5033171;28;20102;-71
2021/12/13 03:44:09;;;;;;;114.18;51.03;;;;;;;-3.23;100.00;100482.56;5032426;28;20049;-71
2021/12/13 03:47:06;;;;;;;112.78;49.17;;;;;;;-3.10;100.00;100494.19;5104167;27;20118;-70
2021/12/13 03:49:54;;;;;;;116.25;52.03;;;;;;;-2.99;100.00;100502.31;5032843;28;20054;-70
2021/12/13 03:52:44;;;;;;;126.80;54.92;;;;;;;-3.07;100.00;100495.19;5032171;28;20354;-70
2021/12/13 03:55:31;;;;;;;112.40;54.78;;;;;;;-2.95;100.00;100501.66;5032159;28;20061;-71
2021/12/13 03:58:19;;;;;;;109.82;51.10;;;;;;;-2.97;100.00;100504.13;5032773;28;20061;-71
2021/12/13 04:01:18;;;;;;;105.20;50.03;;;;;;;-2.98;100.00;100496.38;5032194;28;20041;-71
2021/12/13 04:04:06;;;;;;;120.80;58.25;;;;;;;-2.96;100.00;100489.63;5032767;28;20045;-71
2021/12/13 04:06:56;;;;;;;120.85;57.70;;;;;;;-2.92;100.00;100483.81;5032711;28;20123;-71
2021/12/13 04:09:44;;;;;;;118.00;53.10;;;;;;;-2.90;100.00;100479.59;5032630;28;20046;-70
2021/12/13 04:12:40;;;;;;;109.88;50.17;;;;;;;-2.75;100.00;100484.47;5031929;28;20038;-70
2021/12/13 04:15:49;;;;;;;119.75;55.17;;;;;;;-2.96;100.00;100490.47;5031926;28;20053;-71
2021/12/13 04:21:37;;;;;;;122.20;54.17;;;;;;;-2.73;100.00;100490.53;5032499;28;20037;-71
2021/12/13 04:24:35;;;;;;;112.35;51.22;;;;;;;-2.72;100.00;100488.03;5031785;28;20062;-71
2021/12/13 04:27:26;;;;;;;109.13;49.40;;;;;;;-2.69;100.00;100493.28;5031794;28;20351;-71
2021/12/13 04:30:16;;;;;;;107.47;51.30;;;;;;;-2.63;100.00;100496.09;5032314;28;20057;-71
2021/12/13 04:33:07;;;;;;;107.80;51.35;;;;;;;-2.54;100.00;100489.56;5035761;28;20049;-71
2021/12/13 04:35:54;;;;;;;107.18;51.65;;;;;;;-2.53;100.00;100491.31;5035836;28;20053;-71
2021/12/13 04:38:51;;;;;;;110.20;51.70;;;;;;;-2.44;100.00;100491.66;5035118;28;20457;-71
2021/12/13 04:41:37;;;;;;;103.57;49.58;;;;;;;-2.43;100.00;100501.13;5035729;28;20046;-71
2021/12/13 04:44:33;;;;;;;114.00;53.00;;;;;;;-2.52;100.00;100486.22;5035784;28;20041;-70
2021/12/13 04:47:22;;;;;;;105.95;48.60;;;;;;;-2.46;100.00;100485.59;5035007;28;20117;-71
2021/12/13 04:50:20;;;;;;;97.85;47.17;;;;;;;-2.33;100.00;100486.94;5035890;28;20046;-71
2021/12/13 04:53:05;;;;;;;103.15;50.33;;;;;;;-2.43;100.00;100486.59;5021248;28;20049;-71
2021/12/13 04:55:52;;;;;;;94.32;48.53;;;;;;;-2.38;100.00;100479.91;5035482;28;20045;-71
2021/12/13 04:58:38;;;;;;;98.22;47.22;;;;;;;-2.36;100.00;100487.69;5034655;28;20099;-71
2021/12/13 05:01:23;;;;;;;100.47;51.72;;;;;;;-2.25;100.00;100483.81;5034785;28;20041;-71
2021/12/13 05:04:08;;;;;;;98.32;46.60;;;;;;;-2.29;100.00;100481.97;5034636;28;20041;-71
2021/12/13 05:06:54;;;;;;;102.40;51.60;;;;;;;-2.38;100.00;100479.91;5035397;28;20324;-71
2021/12/13 05:09:38;;;;;;;122.13;55.92;;;;;;;-2.32;100.00;100483.56;5106910;27;20072;-71
2021/12/13 05:12:28;;;;;;;120.05;60.10;;;;;;;-2.29;100.00;100491.38;5020743;28;20049;-70
2021/12/13 05:15:12;;;;;;;129.85;61.78;;;;;;;-2.29;100.00;100492.22;5035293;28;20033;-71
2021/12/13 05:18:02;;;;;;;127.55;58.50;;;;;;;-2.20;100.00;100494.28;5034422;28;20048;-71
2021/12/13 05:20:48;;;;;;;122.10;59.70;;;;;;;-2.15;100.00;100495.31;5020457;28;20122;-71
2021/12/13 05:23:38;;;;;;;120.25;58.10;;;;;;;-2.15;100.00;100496.19;5035210;28;20057;-71
2021/12/13 05:26:37;;;;;;;117.53;60.35;;;;;;;-2.14;100.00;100497.94;5034496;28;20041;-71
2021/12/13 05:29:52;;;;;;;100.68;48.72;;;;;;;-2.24;100.00;100495.88;5035071;28;20037;-71
2021/12/13 05:32:41;;;;;;;97.93;50.53;;;;;;;-2.22;100.00;100501.03;5038111;28;20454;-71
2021/12/13 05:35:33;;;;;;;99.32;51.40;;;;;;;-2.18;100.00;100501.22;5034191;28;20339;-71
2021/12/13 05:38:29;;;;;;;102.23;54.23;;;;;;;-2.35;100.00;100507.41;5034224;28;20332;-71
2021/12/13 05:41:26;;;;;;;109.28;51.55;;;;;;;-2.24;100.00;100502.66;5033841;28;20376;-71
2021/12/13 05:44:12;;;;;;;107.65;49.80;;;;;;;-2.09;100.00;100512.63;5034290;28;20113;-71
2021/12/13 05:46:59;;;;;;;114.10;53.30;;;;;;;-2.13;100.00;100514.22;5033815;28;20431;-71
2021/12/13 05:49:44;;;;;;;119.22;58.47;;;;;;;-2.21;100.00;100513.94;5033942;28;20037;-70
2021/12/13 05:52:37;;;;;;;120.10;55.47;;;;;;;-2.23;100.00;100524.97;5034035;28;20098;-74
2021/12/13 05:55:21;;;;;;;118.85;60.03;;;;;;;-2.17;100.00;100532.91;5034780;28;20447;-69
2021/12/13 05:58:06;;;;;;;120.72;55.38;;;;;;;-2.07;100.00;100528.97;5034375;28;20125;-70
2021/12/13 06:00:53;;;;;;;119.10;58.10;;;;;;;-2.01;100.00;100530.09;5034582;28;20038;-69
2021/12/13 06:03:43;;;;;;;114.43;57.13;;;;;;;-1.98;100.00;100527.63;5033816;28;20328;-70
2021/12/13 06:06:28;;;;;;;121.88;56.53;;;;;;;-2.03;100.00;100525.69;5033770;28;20037;-70
2021/12/13 06:09:41;;;;;;;114.63;55.72;;;;;;;-1.98;100.00;100532.75;5033603;28;20045;-70
2021/12/13 06:12:31;;;;;;;110.07;52.67;;;;;;;-1.94;100.00;100536.31;5033730;28;20051;-70
2021/12/13 06:15:16;;;;;;;111.07;53.58;;;;;;;-1.88;100.00;100536.53;5033617;28;20041;-70
2021/12/13 06:18:03;;;;;;;123.50;54.65;;;;;;;-1.80;100.00;100544.50;5033428;28;20037;-70
2021/12/13 06:21:18;;;;;;;109.28;54.25;;;;;;;-1.85;100.00;100543.47;5033401;28;20052;-70
2021/12/13 06:24:03;;;;;;;125.93;60.60;;;;;;;-1.80;100.00;100545.38;5034034;28;20045;-70
2021/12/13 06:26:47;;;;;;;121.25;59.30;;;;;;;-1.77;100.00;100547.19;5033339;28;20046;-70
2021/12/13 06:29:47;;;;;;;124.43;61.30;;;;;;;-1.74;100.00;100555.88;5034068;28;20042;-70
2021/12/13 06:32:59;;;;;;;125.55;64.72;;;;;;;-1.75;100.00;100551.56;5033452;28;20042;-70
2021/12/13 06:35:51;;;;;;;131.65;66.65;;;;;;;-1.70;100.00;100564.56;5033238;28;20057;-70
2021/12/13 06:38:48;;;;;;;140.70;71.07;;;;;;;-1.62;100.00;100563.19;5033271;28;20059;-70
2021/12/13 06:41:38;;;;;;;138.10;70.95;;;;;;;-1.68;100.00;100560.38;5033322;28;20045;-70
2021/12/13 06:44:30;;;;;;;163.35;81.70;;;;;;;-1.72;100.00;100561.09;5033314;28;20117;-70
2021/12/13 06:47:23;;;;;;;179.65;86.45;;;;;;;-1.71;100.00;100570.53;5019411;28;20049;-70
2021/12/13 06:50:07;;;;;;;;;;;;;;;-1.72;100.00;100568.81;5033538;28;20048;-69
2021/12/13 06:52:52;;;;;;;201.73;90.97;;;;;;;-1.66;100.00;100569.91;5032818;28;19966;-70
2021/12/13 06:55:37;;;;;;;195.43;92.85;;;;;;;-1.66;100.00;100576.69;5032972;28;20049;-70
2021/12/13 06:58:28;;;;;;;245.07;109.93;;;;;;;-1.72;100.00;100573.94;5032557;28;20057;-70
2021/12/13 07:01:13;;;;;;;240.55;108.00;;;;;;;-1.71;100.00;100568.84;5032703;28;20041;-70
2021/12/13 07:04:04;;;;;;;238.05;111.90;;;;;;;-1.72;100.00;100579.06;5032300;28;20045;-70
2021/12/13 07:06:49;;;;;;;220.85;101.03;;;;;;;-1.69;100.00;100582.63;5032866;28;20041;-70
2021/12/13 07:09:34;;;;;;;232.05;107.47;;;;;;;-1.71;100.00;100580.81;5033181;28;20058;-70
2021/12/13 07:12:21;;;;;;;233.27;109.30;;;;;;;-1.67;100.00;100580.09;5033851;28;20053;-70
2021/12/13 07:15:20;;;;;;;247.85;112.55;;;;;;;-1.65;100.00;100579.34;5033542;28;20401;-70
2021/12/13 07:18:07;;;;;;;226.45;105.10;;;;;;;-1.61;100.00;100577.75;5033540;28;20050;-70
2021/12/13 07:20:57;;;;;;;217.27;102.63;;;;;;;-1.56;100.00;100583.94;5032820;28;20038;-70
2021/12/13 07:24:03;;;;;;;236.43;111.95;;;;;;;-1.52;100.00;100592.66;5034166;28;20420;-70
2021/12/13 07:27:06;;;;;;;244.07;116.22;;;;;;;-1.50;100.00;100591.84;5052592;28;20037;-70
2021/12/13 07:29:59;;;;;;;273.60;121.82;;;;;;;-1.49;100.00;100593.63;5052536;28;20430;-70
2021/12/13 07:32:57;;;;;;;296.67;125.37;;;;;;;-1.50;100.00;100594.41;5053240;28;20048;-70
2021/12/13 07:35:46;;;;;;;320.70;128.50;;;;;;;-1.43;100.00;100610.94;5053153;28;20040;-70
2021/12/13 07:38:31;;;;;;;312.58;128.43;;;;;;;-1.40;100.00;100600.78;5053678;28;20120;-70
2021/12/13 07:41:16;;;;;;;278.95;121.45;;;;;;;-1.38;100.00;100613.69;5024554;28;20098;-70
2021/12/13 07:44:01;;;;;;;221.95;102.35;;;;;;;-1.29;100.00;100620.03;5052921;28;20041;-70
2021/12/13 07:46:59;;;;;;;193.77;92.18;;;;;;;-1.33;100.00;100619.84;5052646;28;20045;-70
2021/12/13 07:49:51;;;;;;;179.48;82.85;;;;;;;-1.21;100.00;100621.16;5053438;28;20040;-70
2021/12/13 07:52:39;;;;;;;191.80;88.03;;;;;;;-1.14;100.00;100629.09;5053176;28;20041;-70
2021/12/13 07:55:27;;;;;;;177.65;81.88;;;;;;;-1.13;100.00;100626.59;5053426;28;20041;-71
2021/12/13 07:58:16;;;;;;;177.65;84.95;;;;;;;-0.92;100.00;100631.59;5052707;28;20507;-70
2021/12/13 08:01:23;;;;;;;173.25;80.13;;;;;;;-0.87;100.00;100635.22;5052684;28;20048;-70
2021/12/13 08:04:12;;;;;;;166.30;79.07;;;;;;;-0.90;100.00;100640.25;5053283;28;20068;-70
2021/12/13 08:07:06;;;;;;;161.15;74.20;;;;;;;-0.86;100.00;100636.94;5056905;28;20361;-70
2021/12/13 08:09:58;;;;;;;158.20;75.20;;;;;;;-0.74;100.00;100639.06;5055833;28;20037;-70
2021/12/13 08:13:06;;;;;;;162.73;78.15;;;;;;;-0.72;100.00;100642.56;5055882;28;20045;-70
2021/12/13 08:15:59;;;;;;;168.40;81.78;;;;;;;-0.77;100.00;100644.13;5056739;28;20048;-70
2021/12/13 08:18:43;;;;;;;169.20;79.78;;;;;;;-0.67;100.00;100632.44;5041543;28;20127;-70
2021/12/13 08:21:28;;;;;;;165.80;80.45;;;;;;;-0.59;100.00;100631.84;5041381;28;20049;-70
2021/12/13 08:24:26;;;;;;;179.02;83.05;;;;;;;-0.48;100.00;100624.50;5056724;28;20078;-70
2021/12/13 08:27:19;;;;;;;177.43;83.82;;;;;;;-0.45;100.00;100634.88;5041359;28;20041;-70
2021/12/13 08:30:10;;;;;;;177.07;88.20;;;;;;;-0.50;100.00;100637.28;5055559;28;20044;-70
2021/12/13 08:32:58;;;;;;;169.93;83.70;;;;;;;-0.42;100.00;100626.38;5055852;28;20041;-70
2021/12/13 08:35:48;;;;;;;168.18;84.18;;;;;;;-0.34;100.00;100622.34;5055507;28;20045;-71
2021/12/13 08:38:41;;;;;;;159.68;79.78;;;;;;;-0.27;100.00;100629.44;5055762;28;20049;-70
2021/12/13 08:41:31;;;;;;;171.95;84.53;;;;;;;-0.21;100.00;100628.75;5055621;28;20120;-70
2021/12/13 08:44:38;;;;;;;169.30;81.38;;;;;;;-0.19;100.00;100640.88;5041085;28;20349;-70
2021/12/13 08:47:31;;;;;;;160.45;80.15;;;;;;;-0.11;100.00;100639.41;5055037;28;20056;-71
2021/12/13 08:50:20;;;;;;;164.60;80.63;;;;;;;-0.25;100.00;100650.97;5054966;28;20052;-70
2021/12/13 08:53:19;;;;;;;198.68;95.47;;;;;;;-0.32;100.00;100646.47;5055488;28;20116;-71
2021/12/13 08:56:12;;;;;;;182.60;91.93;;;;;;;-0.12;100.00;100653.09;5055450;28;20049;-71
2021/12/13 08:59:08;;;;;;;184.70;89.00;;;;;;;-0.08;100.00;100654.06;5054624;28;20057;-71
2021/12/13 09:02:08;;;;;;;172.30;84.28;;;;;;;-0.07;100.00;100650.66;5055127;28;20094;-71
2021/12/13 09:05:29;;;;;;;196.10;90.70;;;;;;;-0.02;100.00;100649.13;5040743;28;20146;-71
2021/12/13 09:08:15;;;;;;;248.30;116.80;;;;;;;-0.13;100.00;100655.63;5040595;28;20439;-71
2021/12/13 09:11:21;;;;;;;232.18;117.68;;;;;;;0.04;100.00;100654.47;5055932;28;20075;-71
2021/12/13 09:14:17;;;;;;;216.60;111.57;;;;;;;0.03;100.00;100649.25;5054924;28;20041;-71
2021/12/13 09:17:23;;;;;;;200.38;103.30;;;;;;;0.30;100.00;100650.09;5054621;28;20041;-71
2021/12/13 09:20:23;;;;;;;201.55;100.32;;;;;;;0.35;100.00;100642.50;5054863;28;20061;-71
2021/12/13 09:23:13;;;;;;;204.05;103.32;;;;;;;0.38;100.00;100650.31;5055482;28;20422;-71
2021/12/13 09:26:22;;;;;;;213.27;107.57;;;;;;;0.18;100.00;100642.00;5127455;27;20056;-71
2021/12/13 09:29:07;;;;;;;222.77;109.07;;;;;;;0.23;100.00;100640.44;5054098;28;20048;-71
2021/12/13 09:31:52;;;;;;;389.40;155.88;;;;;;;0.36;100.00;100644.25;5055344;28;20049;-71
2021/12/13 09:34:37;;;;;;;454.60;184.10;;;;;;;0.28;100.00;100651.75;5055525;28;20045;-71
2021/12/13 09:37:21;;;;;;;305.92;143.32;;;;;;;0.24;100.00;100647.34;5054355;28;20109;-71
2021/12/13 09:40:07;;;;;;;239.98;116.55;;;;;;;0.40;100.00;100644.38;5054501;28;20045;-71
2021/12/13 09:42:55;;;;;;;215.45;104.53;;;;;;;0.61;100.00;100649.25;5054386;28;20041;-71
2021/12/13 09:45:48;;;;;;;194.75;96.75;;;;;;;0.56;100.00;100648.28;5054480;28;20041;-71
2021/12/13 09:48:42;;;;;;;205.20;99.82;;;;;;;0.56;100.00;100648.28;5054047;28;20041;-71
2021/12/13 09:51:35;;;;;;;198.88;101.03;;;;;;;0.69;100.00;100644.34;5055291;28;20037;-71
2021/12/13 09:54:27;;;;;;;210.13;101.22;;;;;;;0.60;100.00;100646.66;5053992;28;20037;-71
2021/12/13 09:57:18;;;;;;;207.65;100.72;;;;;;;0.70;100.00;100651.25;5054760;28;20048;-71
2021/12/13 10:00:31;;;;;;;214.60;99.80;;;;;;;0.65;100.00;100648.53;5055184;28;20106;-71
2021/12/13 10:03:28;;;;;;;211.35;96.97;;;;;;;0.81;100.00;100661.84;5053898;28;20109;-71
2021/12/13 10:06:18;;;;;;;198.13;94.25;;;;;;;0.73;100.00;100653.03;5053811;28;20045;-71
2021/12/13 10:09:08;;;;;;;200.98;91.70;;;;;;;0.68;100.00;100653.78;5054995;28;20112;-71
2021/12/13 10:12:01;;;;;;;202.25;95.53;;;;;;;0.58;100.00;100662.06;5054051;28;20053;-71
2021/12/13 10:15:09;;;;;;;200.15;92.80;;;;;;;0.58;100.00;100656.03;5054317;28;20369;-71
2021/12/13 10:17:59;;;;;;;201.20;95.80;;;;;;;0.79;100.00;100650.63;5053920;28;20052;-71
2021/12/13 10:20:51;;;;;;;180.93;91.32;;;;;;;0.93;100.00;100655.31;5039538;28;20041;-71
2021/12/13 10:23:41;;;;;;;226.07;99.55;;;;;;;0.82;100.00;100664.50;5053555;28;20048;-71
2021/12/13 10:26:35;;;;;;;193.40;91.57;;;;;;;0.86;100.00;100661.16;5053513;28;20044;-71
2021/12/13 10:29:23;;;;;;;188.90;90.30;;;;;;;0.98;100.00;100658.03;5052984;28;20320;-71
2021/12/13 10:32:13;;;;;;;177.40;90.22;;;;;;;1.05;100.00;100657.38;5053963;28;20037;-71
2021/12/13 10:35:03;;;;;;;175.02;86.38;;;;;;;1.09;100.00;100666.06;5039547;28;20037;-71
2021/12/13 10:37:54;;;;;;;168.07;81.72;;;;;;;1.10;100.00;100660.94;5053898;28;20041;-70
2021/12/13 10:40:51;;;;;;;167.25;78.57;;;;;;;1.06;100.00;100663.41;5053285;28;20048;-71
2021/12/13 10:43:42;;;;;;;153.63;76.43;;;;;;;1.15;100.00;100659.38;5054539;28;20041;-71
2021/12/13 10:46:34;;;;;;;158.68;76.88;;;;;;;0.89;100.00;100661.25;5125902;27;20052;-71
2021/12/13 10:49:26;;;;;;;152.90;72.40;;;;;;;1.07;100.00;100658.31;5052955;28;20073;-71
2021/12/13 10:52:19;;;;;;;149.88;69.63;;;;;;;1.11;100.00;100664.41;5053813;28;20049;-70
2021/12/13 10:55:16;;;;;;;143.27;64.07;;;;;;;1.18;100.00;100650.84;5053638;28;20048;-70
2021/12/13 10:58:03;;;;;;;132.10;58.88;;;;;;;1.27;100.00;100657.91;5052489;28;20057;-71
2021/12/13 11:00:56;;;;;;;137.90;64.30;;;;;;;1.34;100.00;100644.38;5039133;28;20120;-71
2021/12/13 11:03:41;;;;;;;141.38;66.00;;;;;;;1.18;100.00;100648.25;5053299;28;20044;-71
2021/12/13 11:06:26;;;;;;;130.68;62.03;;;;;;;1.31;100.00;100644.28;5053075;28;20037;-71
2021/12/13 11:09:19;;;;;;;126.78;62.10;;;;;;;1.08;100.00;100652.31;5053720;28;20041;-71
2021/12/13 11:12:11;;;;;;;133.88;68.10;;;;;;;1.10;100.00;100650.59;5053693;28;20068;-70
2021/12/13 11:14:58;;;;;;;130.93;66.72;;;;;;;1.26;100.00;100648.44;5052638;28;20041;-71
2021/12/13 11:17:43;;;;;;;117.82;60.22;;;;;;;1.06;100.00;100643.63;5052350;28;20112;-71
2021/12/13 11:20:34;;;;;;;120.25;58.00;;;;;;;0.98;100.00;100640.00;5053545;28;20048;-70
2021/12/13 11:23:21;;;;;;;121.90;59.75;;;;;;;0.93;100.00;100645.00;5052145;28;20397;-71
2021/12/13 11:26:12;;;;;;;113.32;55.33;;;;;;;1.08;100.00;100647.13;5052235;28;20377;-71
2021/12/13 11:28:58;;;;;;;108.50;56.00;;;;;;;1.38;100.00;100643.59;5053427;28;20049;-71
2021/12/13 11:31:52;;;;;;;114.70;55.22;;;;;;;1.36;100.00;100638.38;5052898;28;20398;-71
2021/12/13 11:34:57;;;;;;;114.63;56.70;;;;;;;1.47;100.00;100632.63;5052623;28;20052;-71
2021/12/13 11:38:27;;;;;;;121.05;57.80;;;;;;;1.34;100.00;100644.38;5052264;28;20101;-71
2021/12/13 11:41:45;;;;;;;130.60;59.60;;;;;;;1.17;100.00;100638.78;5038177;28;20033;-71
2021/12/13 11:44:58;;;;;;;127.20;62.80;;;;;;;1.19;100.00;100638.81;5052199;28;20037;-71
2021/12/13 11:48:08;;;;;;;127.53;61.80;;;;;;;1.08;100.00;100641.97;5051821;28;20057;-71
2021/12/13 11:51:14;;;;;;;130.32;63.05;;;;;;;1.13;100.00;100632.63;5052600;28;20395;-71
2021/12/13 11:54:07;;;;;;;126.18;62.08;;;;;;;1.09;100.00;100638.56;5051878;28;20037;-71
2021/12/13 11:56:55;;;;;;;127.90;63.28;;;;;;;1.25;100.00;100637.25;5051864;28;20078;-71
2021/12/13 12:00:10;;;;;;;119.93;61.03;;;;;;;1.43;100.00;100636.84;5051572;28;20053;-71
2021/12/13 12:03:29;;;;;;;140.77;67.30;;;;;;;1.58;100.00;100638.94;5038030;28;20053;-71
2021/12/13 12:06:51;;;;;;;145.13;69.55;;;;;;;1.68;100.00;100638.31;5037735;28;20449;-71
2021/12/13 12:09:58;;;;;;;133.65;66.80;;;;;;;1.46;100.00;100647.22;5052375;28;20048;-71
2021/12/13 12:12:53;;;;;;;139.38;67.82;;;;;;;1.31;100.00;100640.00;5051704;28;20120;-71
2021/12/13 12:15:41;;;;;;;144.07;69.78;;;;;;;1.48;100.00;100643.00;5037901;28;20041;-71
2021/12/13 12:18:26;;;;;;;136.80;67.30;;;;;;;1.51;100.00;100639.63;5052354;28;20049;-71
2021/12/13 12:21:45;;;;;;;139.68;65.43;;;;;;;1.40;100.00;100637.66;5052096;28;20045;-71
2021/12/13 12:24:37;;;;;;;143.82;68.05;;;;;;;1.37;100.00;100635.00;5051805;28;20479;-71
2021/12/13 12:27:31;;;;;;;141.38;68.88;;;;;;;1.42;100.00;100639.38;5051840;28;20037;-71
2021/12/13 12:30:21;;;;;;;140.95;66.13;;;;;;;1.48;100.00;100636.97;5052635;28;20045;-71
2021/12/13 12:33:10;;;;;;;134.93;67.47;;;;;;;1.83;100.00;100637.81;5052627;28;20094;-71
2021/12/13 12:35:55;;;;;;;152.65;69.43;;;;;;;1.79;100.00;100620.50;5037641;28;20107;-71
2021/12/13 12:39:03;;;;;;;143.45;69.28;;;;;;;1.83;100.00;100643.84;5052615;28;20045;-71
2021/12/13 12:42:25;;;;;;;145.23;71.47;;;;;;;1.44;100.00;100648.06;5037284;28;20045;-71
2021/12/13 12:45:41;;;;;;;135.80;69.78;;;;;;;1.54;100.00;100650.03;5051257;28;20457;-71
2021/12/13 12:48:37;;;;;;;153.00;71.13;;;;;;;1.38;100.00;100659.97;5051628;28;20041;-71
2021/12/13 12:51:28;;;;;;;153.20;73.45;;;;;;;1.28;100.00;100646.78;5053112;28;20037;-71
2021/12/13 12:54:15;;;;;;;146.32;71.47;;;;;;;1.39;100.00;100653.09;5041240;28;20049;-71
2021/12/13 12:57:01;;;;;;;150.07;72.03;;;;;;;1.36;100.00;100647.84;5041523;28;20041;-71
2021/12/13 12:59:45;;;;;;;153.57;72.05;;;;;;;1.17;100.00;100649.97;5054635;28;20080;-71
2021/12/13 13:02:32;;;;;;;152.25;73.65;;;;;;;1.27;100.00;100652.75;5055571;28;20382;-71